sensor_id;sensor_type;location;lat;lon;timestamp;pressure;altitude;pressure_sealevel;temperature;humidity
48553;BME280;34335;51.566;6.994;2022-08-16T00:01:48;100043.63;;;22.16;56.82
48553;BME280;34335;51.566;6.994;2022-08-16T00:04:14;100039.56;;;22.24;56.06
48553;BME280;34335;51.566;6.994;2022-08-16T00:06:39;100037.69;;;22.26;55.97
48553;BME280;34335;51.566;6.994;2022-08-16T00:09:05;100041.94;;;22.29;56.54
48553;BME280;34335;51.566;6.994;2022-08-16T00:11:31;100043.34;;;22.20;56.81
48553;BME280;34335;51.566;6.994;2022-08-16T00:13:57;100039.66;;;22.23;56.07
48553;BME280;34335;51.566;6.994;2022-08-16T00:16:25;100042.31;;;22.23;56.85
48553;BME280;34335;51.566;6.994;2022-08-16T00:18:50;100045.06;;;22.21;56.28
48553;BME280;34335;51.566;6.994;2022-08-16T00:21:16;100041.53;;;22.21;56.24
48553;BME280;34335;51.566;6.994;2022-08-16T00:23:41;100051.19;;;22.22;56.25
48553;BME280;34335;51.566;6.994;2022-08-16T00:26:07;100047.63;;;22.23;56.24
48553;BME280;34335;51.566;6.994;2022-08-16T00:28:32;100045.13;;;22.20;56.18
48553;BME280;34335;51.566;6.994;2022-08-16T00:30:57;100043.25;;;22.22;56.02
48553;BME280;34335;51.566;6.994;2022-08-16T00:33:23;100041.44;;;22.22;56.90
48553;BME280;34335;51.566;6.994;2022-08-16T00:35:48;100041.66;;;22.19;56.74
48553;BME280;34335;51.566;6.994;2022-08-16T00:38:13;100046.28;;;22.16;56.96
48553;BME280;34335;51.566;6.994;2022-08-16T00:40:44;100051.09;;;22.09;61.48
48553;BME280;34335;51.566;6.994;2022-08-16T00:43:16;100040.56;;;22.07;57.17
48553;BME280;34335;51.566;6.994;2022-08-16T00:46:02;100048.47;;;21.78;64.00
48553;BME280;34335;51.566;6.994;2022-08-16T00:48:32;100050.88;;;21.67;63.13
48553;BME280;34335;51.566;6.994;2022-08-16T00:50:59;100045.38;;;21.70;61.63
48553;BME280;34335;51.566;6.994;2022-08-16T00:53:24;100048.91;;;21.71;60.99
48553;BME280;34335;51.566;6.994;2022-08-16T00:55:52;100049.34;;;21.63;64.91
48553;BME280;34335;51.566;6.994;2022-08-16T00:58:20;100056.50;;;21.61;63.26
48553;BME280;34335;51.566;6.994;2022-08-16T01:00:47;100048.13;;;21.69;59.01
48553;BME280;34335;51.566;6.994;2022-08-16T01:03:16;100052.22;;;21.74;58.61
48553;BME280;34335;51.566;6.994;2022-08-16T01:05:43;100042.41;;;21.76;58.59
48553;BME280;34335;51.566;6.994;2022-08-16T01:08:10;100049.16;;;21.66;64.29
48553;BME280;34335;51.566;6.994;2022-08-16T01:10:37;100038.06;;;21.75;64.84
48553;BME280;34335;51.566;6.994;2022-08-16T01:13:13;100049.84;;;21.70;58.98
48553;BME280;34335;51.566;6.994;2022-08-16T01:15:42;100047.34;;;21.51;64.81
48553;BME280;34335;51.566;6.994;2022-08-16T01:18:09;100053.00;;;21.44;64.57
48553;BME280;34335;51.566;6.994;2022-08-16T01:20:39;100052.25;;;21.42;63.91
48553;BME280;34335;51.566;6.994;2022-08-16T01:23:14;100058.31;;;21.44;65.70
48553;BME280;34335;51.566;6.994;2022-08-16T01:25:43;100054.09;;;21.40;63.88
48553;BME280;34335;51.566;6.994;2022-08-16T01:28:13;100050.88;;;21.35;65.78
48553;BME280;34335;51.566;6.994;2022-08-16T01:30:42;100052.34;;;21.41;66.45
48553;BME280;34335;51.566;6.994;2022-08-16T01:33:09;100057.88;;;21.36;65.20
48553;BME280;34335;51.566;6.994;2022-08-16T01:35:39;100057.78;;;21.38;66.63
48553;BME280;34335;51.566;6.994;2022-08-16T01:41:13;100053.44;;;21.37;63.66
48553;BME280;34335;51.566;6.994;2022-08-16T01:43:42;100054.81;;;21.28;64.14
48553;BME280;34335;51.566;6.994;2022-08-16T01:46:38;100054.41;;;21.20;66.09
48553;BME280;34335;51.566;6.994;2022-08-16T01:49:26;100047.00;;;21.10;66.24
48553;BME280;34335;51.566;6.994;2022-08-16T01:52:00;100052.94;;;21.14;64.56
48553;BME280;34335;51.566;6.994;2022-08-16T01:54:26;100042.19;;;21.17;64.93
48553;BME280;34335;51.566;6.994;2022-08-16T01:56:52;100037.25;;;21.11;68.09
48553;BME280;34335;51.566;6.994;2022-08-16T01:59:18;100048.00;;;21.08;67.72
48553;BME280;34335;51.566;6.994;2022-08-16T02:01:47;100050.88;;;21.03;68.68
48553;BME280;34335;51.566;6.994;2022-08-16T02:04:13;100042.13;;;21.02;69.21
48553;BME280;34335;51.566;6.994;2022-08-16T02:06:40;100046.88;;;20.96;68.38
48553;BME280;34335;51.566;6.994;2022-08-16T02:09:06;100041.56;;;20.80;70.31
48553;BME280;34335;51.566;6.994;2022-08-16T02:11:34;100046.09;;;20.94;67.85
48553;BME280;34335;51.566;6.994;2022-08-16T02:14:00;100048.59;;;20.97;65.54
48553;BME280;34335;51.566;6.994;2022-08-16T02:16:25;100051.38;;;20.94;67.23
48553;BME280;34335;51.566;6.994;2022-08-16T02:18:51;100052.00;;;20.83;69.34
48553;BME280;34335;51.566;6.994;2022-08-16T02:21:18;100051.47;;;20.76;68.79
48553;BME280;34335;51.566;6.994;2022-08-16T02:23:44;100057.69;;;20.91;67.19
48553;BME280;34335;51.566;6.994;2022-08-16T02:26:10;100054.78;;;20.80;67.31
48553;BME280;34335;51.566;6.994;2022-08-16T02:28:35;100051.38;;;20.78;67.33
48553;BME280;34335;51.566;6.994;2022-08-16T02:31:05;100044.00;;;20.67;70.24
48553;BME280;34335;51.566;6.994;2022-08-16T02:33:30;100051.94;;;20.67;68.39
48553;BME280;34335;51.566;6.994;2022-08-16T02:35:56;100045.88;;;20.65;69.12
48553;BME280;34335;51.566;6.994;2022-08-16T02:38:21;100055.94;;;20.58;70.00
48553;BME280;34335;51.566;6.994;2022-08-16T02:40:47;100056.53;;;20.63;66.63
48553;BME280;34335;51.566;6.994;2022-08-16T02:43:12;100052.84;;;20.66;67.22
48553;BME280;34335;51.566;6.994;2022-08-16T02:45:38;100064.00;;;20.55;69.96
48553;BME280;34335;51.566;6.994;2022-08-16T02:48:04;100058.97;;;20.50;71.03
48553;BME280;34335;51.566;6.994;2022-08-16T02:50:29;100051.09;;;20.49;70.36
48553;BME280;34335;51.566;6.994;2022-08-16T02:52:55;100059.22;;;20.46;69.30
48553;BME280;34335;51.566;6.994;2022-08-16T02:55:21;100057.25;;;20.49;68.95
48553;BME280;34335;51.566;6.994;2022-08-16T02:57:47;100050.13;;;20.51;65.65
48553;BME280;34335;51.566;6.994;2022-08-16T03:00:15;100055.34;;;20.35;68.00
48553;BME280;34335;51.566;6.994;2022-08-16T03:02:41;100059.75;;;20.35;70.77
48553;BME280;34335;51.566;6.994;2022-08-16T03:05:10;100055.34;;;20.35;68.27
48553;BME280;34335;51.566;6.994;2022-08-16T03:07:36;100050.91;;;20.36;69.32
48553;BME280;34335;51.566;6.994;2022-08-16T03:10:06;100055.50;;;20.32;65.81
48553;BME280;34335;51.566;6.994;2022-08-16T03:12:32;100057.91;;;20.37;68.46
48553;BME280;34335;51.566;6.994;2022-08-16T03:14:58;100054.94;;;20.43;64.13
48553;BME280;34335;51.566;6.994;2022-08-16T03:17:23;100063.81;;;20.42;68.38
48553;BME280;34335;51.566;6.994;2022-08-16T03:19:49;100060.63;;;20.35;67.33
48553;BME280;34335;51.566;6.994;2022-08-16T03:22:18;100067.44;;;20.39;68.09
48553;BME280;34335;51.566;6.994;2022-08-16T03:24:43;100067.56;;;20.20;71.11
48553;BME280;34335;51.566;6.994;2022-08-16T03:27:09;100062.72;;;20.29;66.29
48553;BME280;34335;51.566;6.994;2022-08-16T03:29:34;100072.34;;;20.30;63.28
48553;BME280;34335;51.566;6.994;2022-08-16T03:32:01;100067.91;;;20.30;63.85
48553;BME280;34335;51.566;6.994;2022-08-16T03:34:27;100064.44;;;20.30;63.15
48553;BME280;34335;51.566;6.994;2022-08-16T03:36:53;100055.97;;;20.23;63.92
48553;BME280;34335;51.566;6.994;2022-08-16T03:39:18;100061.94;;;20.27;63.21
48553;BME280;34335;51.566;6.994;2022-08-16T03:41:44;100063.50;;;20.31;62.96
48553;BME280;34335;51.566;6.994;2022-08-16T03:44:09;100062.41;;;20.17;66.00
48553;BME280;34335;51.566;6.994;2022-08-16T03:46:34;100076.53;;;20.16;65.06
48553;BME280;34335;51.566;6.994;2022-08-16T03:49:00;100070.91;;;20.06;67.72
48553;BME280;34335;51.566;6.994;2022-08-16T03:51:26;100073.31;;;20.11;63.63
48553;BME280;34335;51.566;6.994;2022-08-16T03:53:51;100067.72;;;20.00;68.28
48553;BME280;34335;51.566;6.994;2022-08-16T03:56:17;100065.84;;;20.02;63.58
48553;BME280;34335;51.566;6.994;2022-08-16T03:58:42;100073.91;;;19.99;64.74
48553;BME280;34335;51.566;6.994;2022-08-16T04:01:07;100075.63;;;20.00;69.21
48553;BME280;34335;51.566;6.994;2022-08-16T04:03:33;100077.56;;;19.96;64.38
48553;BME280;34335;51.566;6.994;2022-08-16T04:05:59;100083.00;;;19.93;63.99
48553;BME280;34335;51.566;6.994;2022-08-16T04:08:24;100086.28;;;19.79;71.18
48553;BME280;34335;51.566;6.994;2022-08-16T04:10:52;100089.22;;;19.73;67.40
48553;BME280;34335;51.566;6.994;2022-08-16T04:13:18;100087.06;;;19.81;64.60
48553;BME280;34335;51.566;6.994;2022-08-16T04:15:43;100091.09;;;19.71;65.06
48553;BME280;34335;51.566;6.994;2022-08-16T04:18:09;100090.94;;;19.74;64.79
48553;BME280;34335;51.566;6.994;2022-08-16T04:20:34;100090.13;;;19.91;70.19
48553;BME280;34335;51.566;6.994;2022-08-16T04:23:00;100086.13;;;19.65;67.34
48553;BME280;34335;51.566;6.994;2022-08-16T04:25:26;100089.47;;;19.68;68.71
48553;BME280;34335;51.566;6.994;2022-08-16T04:27:51;100096.44;;;19.69;65.51
48553;BME280;34335;51.566;6.994;2022-08-16T04:30:18;100092.59;;;19.57;66.05
48553;BME280;34335;51.566;6.994;2022-08-16T04:32:45;100085.34;;;19.62;67.51
48553;BME280;34335;51.566;6.994;2022-08-16T04:35:15;100081.50;;;19.51;71.54
48553;BME280;34335;51.566;6.994;2022-08-16T04:37:42;100085.00;;;19.51;65.23
48553;BME280;34335;51.566;6.994;2022-08-16T04:40:08;100100.69;;;19.54;67.51
48553;BME280;34335;51.566;6.994;2022-08-16T04:42:35;100101.34;;;19.40;70.05
48553;BME280;34335;51.566;6.994;2022-08-16T04:45:04;100093.34;;;19.42;66.94
48553;BME280;34335;51.566;6.994;2022-08-16T04:47:31;100109.31;;;19.39;70.28
48553;BME280;34335;51.566;6.994;2022-08-16T04:49:56;100098.13;;;19.34;69.67
48553;BME280;34335;51.566;6.994;2022-08-16T04:52:22;100099.97;;;19.31;74.33
48553;BME280;34335;51.566;6.994;2022-08-16T04:54:47;100105.13;;;19.35;72.04
48553;BME280;34335;51.566;6.994;2022-08-16T04:57:12;100103.09;;;19.40;72.92
48553;BME280;34335;51.566;6.994;2022-08-16T04:59:38;100110.66;;;19.28;75.55
48553;BME280;34335;51.566;6.994;2022-08-16T05:02:04;100116.72;;;19.30;74.39
48553;BME280;34335;51.566;6.994;2022-08-16T05:04:29;100119.34;;;19.30;74.79
48553;BME280;34335;51.566;6.994;2022-08-16T05:06:55;100122.78;;;19.33;71.62
48553;BME280;34335;51.566;6.994;2022-08-16T05:09:21;100123.66;;;19.33;73.32
48553;BME280;34335;51.566;6.994;2022-08-16T05:11:46;100123.06;;;19.26;76.15
48553;BME280;34335;51.566;6.994;2022-08-16T05:14:11;100124.94;;;19.24;75.60
48553;BME280;34335;51.566;6.994;2022-08-16T05:16:37;100131.91;;;19.25;76.36
48553;BME280;34335;51.566;6.994;2022-08-16T05:19:03;100131.91;;;19.25;75.64
48553;BME280;34335;51.566;6.994;2022-08-16T05:21:29;100123.91;;;19.27;74.72
48553;BME280;34335;51.566;6.994;2022-08-16T05:23:55;100126.63;;;19.25;75.68
48553;BME280;34335;51.566;6.994;2022-08-16T05:26:21;100134.69;;;19.22;75.85
48553;BME280;34335;51.566;6.994;2022-08-16T05:28:47;100142.44;;;19.25;76.31
48553;BME280;34335;51.566;6.994;2022-08-16T05:31:13;100133.75;;;19.23;75.90
48553;BME280;34335;51.566;6.994;2022-08-16T05:33:40;100137.75;;;19.32;76.02
48553;BME280;34335;51.566;6.994;2022-08-16T05:36:05;100141.91;;;19.38;77.07
48553;BME280;34335;51.566;6.994;2022-08-16T05:38:31;100144.44;;;19.39;74.38
48553;BME280;34335;51.566;6.994;2022-08-16T05:40:57;100146.00;;;19.43;74.36
48553;BME280;34335;51.566;6.994;2022-08-16T05:43:23;100148.28;;;19.51;76.88
48553;BME280;34335;51.566;6.994;2022-08-16T05:45:48;100150.78;;;19.54;75.02
48553;BME280;34335;51.566;6.994;2022-08-16T05:48:14;100147.94;;;19.59;75.11
48553;BME280;34335;51.566;6.994;2022-08-16T05:50:40;100151.13;;;19.66;75.92
48553;BME280;34335;51.566;6.994;2022-08-16T05:53:05;100142.34;;;19.65;75.38
48553;BME280;34335;51.566;6.994;2022-08-16T05:55:31;100139.34;;;19.73;76.87
48553;BME280;34335;51.566;6.994;2022-08-16T05:57:56;100142.56;;;19.80;75.38
48553;BME280;34335;51.566;6.994;2022-08-16T06:00:22;100138.78;;;19.85;74.20
48553;BME280;34335;51.566;6.994;2022-08-16T06:02:47;100150.81;;;19.91;75.06
48553;BME280;34335;51.566;6.994;2022-08-16T06:05:13;100147.88;;;19.97;75.28
48553;BME280;34335;51.566;6.994;2022-08-16T06:07:39;100152.63;;;20.08;75.56
48553;BME280;34335;51.566;6.994;2022-08-16T06:10:04;100138.50;;;20.09;73.57
48553;BME280;34335;51.566;6.994;2022-08-16T06:12:30;100151.25;;;20.18;74.81
48553;BME280;34335;51.566;6.994;2022-08-16T06:15:02;100158.16;;;20.21;74.68
48553;BME280;34335;51.566;6.994;2022-08-16T06:17:28;100148.09;;;20.29;74.02
48553;BME280;34335;51.566;6.994;2022-08-16T06:19:54;100150.00;;;20.26;74.50
48553;BME280;34335;51.566;6.994;2022-08-16T06:22:20;100143.94;;;20.41;74.68
48553;BME280;34335;51.566;6.994;2022-08-16T06:24:45;100146.13;;;20.50;74.34
48553;BME280;34335;51.566;6.994;2022-08-16T06:27:11;100144.72;;;20.61;72.76
48553;BME280;34335;51.566;6.994;2022-08-16T06:29:36;100146.25;;;20.65;72.96
48553;BME280;34335;51.566;6.994;2022-08-16T06:32:02;100155.88;;;20.66;73.13
48553;BME280;34335;51.566;6.994;2022-08-16T06:34:28;100163.38;;;20.75;73.09
48553;BME280;34335;51.566;6.994;2022-08-16T06:36:53;100162.88;;;20.84;72.59
48553;BME280;34335;51.566;6.994;2022-08-16T06:39:19;100167.38;;;21.00;72.90
48553;BME280;34335;51.566;6.994;2022-08-16T06:41:44;100165.06;;;21.10;72.28
48553;BME280;34335;51.566;6.994;2022-08-16T06:44:10;100169.97;;;21.17;71.48
48553;BME280;34335;51.566;6.994;2022-08-16T06:46:36;100173.31;;;21.37;72.04
48553;BME280;34335;51.566;6.994;2022-08-16T06:49:11;100166.91;;;21.41;71.10
48553;BME280;34335;51.566;6.994;2022-08-16T06:51:38;100179.38;;;21.39;71.38
48553;BME280;34335;51.566;6.994;2022-08-16T06:54:04;100175.09;;;21.53;71.28
48553;BME280;34335;51.566;6.994;2022-08-16T06:56:30;100174.00;;;21.57;70.50
48553;BME280;34335;51.566;6.994;2022-08-16T06:58:56;100171.22;;;21.60;70.83
48553;BME280;34335;51.566;6.994;2022-08-16T07:01:21;100176.84;;;21.86;71.21
48553;BME280;34335;51.566;6.994;2022-08-16T07:03:47;100169.28;;;22.10;70.30
48553;BME280;34335;51.566;6.994;2022-08-16T07:06:13;100166.50;;;22.28;68.83
48553;BME280;34335;51.566;6.994;2022-08-16T07:08:38;100163.59;;;22.32;68.54
48553;BME280;34335;51.566;6.994;2022-08-16T07:11:07;100170.31;;;22.38;68.37
48553;BME280;34335;51.566;6.994;2022-08-16T07:13:32;100175.50;;;22.41;68.07
48553;BME280;34335;51.566;6.994;2022-08-16T07:15:58;100174.34;;;22.45;67.82
48553;BME280;34335;51.566;6.994;2022-08-16T07:18:25;100165.94;;;22.53;68.43
48553;BME280;34335;51.566;6.994;2022-08-16T07:20:50;100175.44;;;22.86;67.21
48553;BME280;34335;51.566;6.994;2022-08-16T07:23:18;100179.63;;;22.90;66.96
48553;BME280;34335;51.566;6.994;2022-08-16T07:25:44;100183.78;;;23.09;66.09
48553;BME280;34335;51.566;6.994;2022-08-16T07:28:12;100187.16;;;23.27;65.96
48553;BME280;34335;51.566;6.994;2022-08-16T07:30:39;100184.19;;;23.31;66.20
48553;BME280;34335;51.566;6.994;2022-08-16T07:33:05;100188.34;;;23.36;66.20
48553;BME280;34335;51.566;6.994;2022-08-16T07:35:31;100194.81;;;23.31;65.99
48553;BME280;34335;51.566;6.994;2022-08-16T07:37:57;100199.53;;;23.41;65.30
48553;BME280;34335;51.566;6.994;2022-08-16T07:40:22;100195.53;;;23.48;65.00
48553;BME280;34335;51.566;6.994;2022-08-16T07:42:50;100205.72;;;23.27;66.09
48553;BME280;34335;51.566;6.994;2022-08-16T07:45:15;100204.88;;;23.68;65.10
48553;BME280;34335;51.566;6.994;2022-08-16T07:47:41;100200.13;;;23.73;65.11
48553;BME280;34335;51.566;6.994;2022-08-16T07:50:08;100202.50;;;23.63;63.84
48553;BME280;34335;51.566;6.994;2022-08-16T07:52:34;100205.34;;;23.75;64.32
48553;BME280;34335;51.566;6.994;2022-08-16T07:54:59;100202.50;;;24.33;64.35
48553;BME280;34335;51.566;6.994;2022-08-16T07:57:24;100193.91;;;24.42;62.38
48553;BME280;34335;51.566;6.994;2022-08-16T07:59:50;100196.28;;;24.59;63.61
48553;BME280;34335;51.566;6.994;2022-08-16T08:02:16;100199.16;;;24.56;62.71
48553;BME280;34335;51.566;6.994;2022-08-16T08:04:42;100202.72;;;24.96;62.49
48553;BME280;34335;51.566;6.994;2022-08-16T08:07:07;100212.09;;;25.14;61.68
48553;BME280;34335;51.566;6.994;2022-08-16T08:09:33;100216.22;;;24.80;60.87
48553;BME280;34335;51.566;6.994;2022-08-16T08:11:58;100216.22;;;24.93;61.86
48553;BME280;34335;51.566;6.994;2022-08-16T08:14:23;100223.13;;;25.47;61.67
48553;BME280;34335;51.566;6.994;2022-08-16T08:16:49;100226.22;;;25.41;60.91
48553;BME280;34335;51.566;6.994;2022-08-16T08:19:15;100229.41;;;25.46;60.12
48553;BME280;34335;51.566;6.994;2022-08-16T08:21:41;100226.63;;;25.85;60.42
48553;BME280;34335;51.566;6.994;2022-08-16T08:24:08;100225.84;;;25.71;58.94
48553;BME280;34335;51.566;6.994;2022-08-16T08:26:34;100220.69;;;26.05;58.56
48553;BME280;34335;51.566;6.994;2022-08-16T08:29:00;100232.91;;;25.96;59.68
48553;BME280;34335;51.566;6.994;2022-08-16T08:31:26;100225.09;;;25.69;57.47
48553;BME280;34335;51.566;6.994;2022-08-16T08:33:51;100233.88;;;25.58;59.48
48553;BME280;34335;51.566;6.994;2022-08-16T08:36:25;100232.69;;;25.87;58.84
48553;BME280;34335;51.566;6.994;2022-08-16T08:38:51;100222.41;;;26.06;59.41
48553;BME280;34335;51.566;6.994;2022-08-16T08:41:17;100232.88;;;26.09;56.62
48553;BME280;34335;51.566;6.994;2022-08-16T08:43:44;100231.84;;;26.70;57.31
48553;BME280;34335;51.566;6.994;2022-08-16T08:46:10;100239.94;;;26.22;55.91
48553;BME280;34335;51.566;6.994;2022-08-16T08:48:35;100231.34;;;26.54;55.81
48553;BME280;34335;51.566;6.994;2022-08-16T08:51:05;100237.91;;;26.61;54.83
48553;BME280;34335;51.566;6.994;2022-08-16T08:53:32;100239.19;;;26.80;56.58
48553;BME280;34335;51.566;6.994;2022-08-16T08:55:58;100236.81;;;27.22;53.65
48553;BME280;34335;51.566;6.994;2022-08-16T08:58:24;100239.47;;;26.99;53.59
48553;BME280;34335;51.566;6.994;2022-08-16T09:00:49;100243.53;;;27.50;55.22
48553;BME280;34335;51.566;6.994;2022-08-16T09:03:15;100240.94;;;27.72;54.56
48553;BME280;34335;51.566;6.994;2022-08-16T09:05:40;100238.28;;;28.27;54.32
48553;BME280;34335;51.566;6.994;2022-08-16T09:08:06;100231.53;;;28.11;54.14
48553;BME280;34335;51.566;6.994;2022-08-16T09:10:32;100240.50;;;28.10;53.47
48553;BME280;34335;51.566;6.994;2022-08-16T09:12:58;100234.53;;;28.18;52.40
48553;BME280;34335;51.566;6.994;2022-08-16T09:15:23;100238.56;;;28.12;53.74
48553;BME280;34335;51.566;6.994;2022-08-16T09:17:50;100226.19;;;28.86;53.53
48553;BME280;34335;51.566;6.994;2022-08-16T09:20:21;100246.47;;;28.47;51.07
48553;BME280;34335;51.566;6.994;2022-08-16T09:22:47;100227.75;;;28.89;52.38
48553;BME280;34335;51.566;6.994;2022-08-16T09:25:13;100251.66;;;28.48;48.43
48553;BME280;34335;51.566;6.994;2022-08-16T09:27:39;100237.53;;;28.79;47.24
48553;BME280;34335;51.566;6.994;2022-08-16T09:30:05;100242.69;;;28.49;49.40
48553;BME280;34335;51.566;6.994;2022-08-16T09:32:32;100235.66;;;29.21;50.95
48553;BME280;34335;51.566;6.994;2022-08-16T09:34:59;100234.78;;;28.69;49.48
48553;BME280;34335;51.566;6.994;2022-08-16T09:37:27;100246.63;;;28.87;48.06
48553;BME280;34335;51.566;6.994;2022-08-16T09:39:54;100245.19;;;28.83;48.14
48553;BME280;34335;51.566;6.994;2022-08-16T09:42:20;100227.22;;;28.74;50.02
48553;BME280;34335;51.566;6.994;2022-08-16T09:44:45;100240.94;;;29.33;48.05
48553;BME280;34335;51.566;6.994;2022-08-16T09:47:11;100230.88;;;29.56;47.75
48553;BME280;34335;51.566;6.994;2022-08-16T09:49:36;100236.81;;;29.60;45.79
48553;BME280;34335;51.566;6.994;2022-08-16T09:52:02;100232.00;;;30.04;48.34
48553;BME280;34335;51.566;6.994;2022-08-16T09:54:28;100234.69;;;30.04;48.24
48553;BME280;34335;51.566;6.994;2022-08-16T09:56:54;100228.47;;;30.23;46.11
48553;BME280;34335;51.566;6.994;2022-08-16T09:59:21;100220.84;;;30.28;47.70
48553;BME280;34335;51.566;6.994;2022-08-16T10:01:47;100218.59;;;30.43;44.99
48553;BME280;34335;51.566;6.994;2022-08-16T10:04:14;100221.28;;;30.63;42.41
48553;BME280;34335;51.566;6.994;2022-08-16T10:06:41;100224.19;;;30.80;45.70
48553;BME280;34335;51.566;6.994;2022-08-16T10:09:09;100217.03;;;31.18;44.56
48553;BME280;34335;51.566;6.994;2022-08-16T10:11:36;100221.34;;;31.38;42.97
48553;BME280;34335;51.566;6.994;2022-08-16T10:14:21;100236.50;;;29.94;42.75
48553;BME280;34335;51.566;6.994;2022-08-16T10:16:47;100237.78;;;30.49;42.10
48553;BME280;34335;51.566;6.994;2022-08-16T10:19:13;100227.72;;;30.90;42.18
48553;BME280;34335;51.566;6.994;2022-08-16T10:21:39;100233.13;;;30.21;41.52
48553;BME280;34335;51.566;6.994;2022-08-16T10:24:06;100231.56;;;30.38;43.17
48553;BME280;34335;51.566;6.994;2022-08-16T10:26:32;100222.69;;;31.24;44.66
48553;BME280;34335;51.566;6.994;2022-08-16T10:28:58;100237.81;;;31.16;42.25
48553;BME280;34335;51.566;6.994;2022-08-16T10:31:23;100232.75;;;30.93;41.66
48553;BME280;34335;51.566;6.994;2022-08-16T10:33:49;100233.78;;;31.67;44.53
48553;BME280;34335;51.566;6.994;2022-08-16T10:36:14;100230.66;;;31.62;41.38
48553;BME280;34335;51.566;6.994;2022-08-16T10:38:40;100235.44;;;30.93;40.85
48553;BME280;34335;51.566;6.994;2022-08-16T10:41:07;100238.84;;;30.95;41.85
48553;BME280;34335;51.566;6.994;2022-08-16T10:43:34;100242.88;;;30.71;42.45
48553;BME280;34335;51.566;6.994;2022-08-16T10:46:00;100244.38;;;30.93;40.21
48553;BME280;34335;51.566;6.994;2022-08-16T10:48:28;100247.41;;;31.56;41.01
48553;BME280;34335;51.566;6.994;2022-08-16T10:50:53;100244.22;;;31.70;40.48
48553;BME280;34335;51.566;6.994;2022-08-16T10:53:22;100240.19;;;32.03;38.45
48553;BME280;34335;51.566;6.994;2022-08-16T10:55:47;100246.91;;;31.70;38.00
48553;BME280;34335;51.566;6.994;2022-08-16T10:58:14;100245.97;;;31.34;40.30
48553;BME280;34335;51.566;6.994;2022-08-16T11:00:39;100243.94;;;31.74;39.61
48553;BME280;34335;51.566;6.994;2022-08-16T11:03:06;100237.13;;;32.15;38.52
48553;BME280;34335;51.566;6.994;2022-08-16T11:05:34;100246.41;;;31.57;36.25
48553;BME280;34335;51.566;6.994;2022-08-16T11:08:00;100246.78;;;31.62;36.23
48553;BME280;34335;51.566;6.994;2022-08-16T11:10:32;100244.88;;;32.00;39.51
48553;BME280;34335;51.566;6.994;2022-08-16T11:12:57;100240.91;;;32.41;39.98
48553;BME280;34335;51.566;6.994;2022-08-16T11:15:23;100249.09;;;31.85;38.32
48553;BME280;34335;51.566;6.994;2022-08-16T11:17:51;100238.69;;;32.36;36.19
48553;BME280;34335;51.566;6.994;2022-08-16T11:20:17;100232.59;;;32.16;38.59
48553;BME280;34335;51.566;6.994;2022-08-16T11:22:44;100233.84;;;32.40;35.89
48553;BME280;34335;51.566;6.994;2022-08-16T11:25:10;100231.53;;;32.45;37.95
48553;BME280;34335;51.566;6.994;2022-08-16T11:27:37;100245.06;;;32.17;35.13
48553;BME280;34335;51.566;6.994;2022-08-16T11:30:03;100240.69;;;32.16;35.14
48553;BME280;34335;51.566;6.994;2022-08-16T11:32:29;100231.25;;;33.01;37.05
48553;BME280;34335;51.566;6.994;2022-08-16T11:34:54;100233.59;;;32.51;35.41
48553;BME280;34335;51.566;6.994;2022-08-16T11:37:20;100231.25;;;33.70;35.25
48553;BME280;34335;51.566;6.994;2022-08-16T11:39:46;100237.34;;;32.22;33.67
48553;BME280;34335;51.566;6.994;2022-08-16T11:42:11;100231.00;;;32.86;36.02
48553;BME280;34335;51.566;6.994;2022-08-16T11:44:36;100236.16;;;32.61;36.91
48553;BME280;34335;51.566;6.994;2022-08-16T11:47:02;100239.97;;;32.32;33.70
48553;BME280;34335;51.566;6.994;2022-08-16T11:49:27;100246.16;;;32.24;34.54
48553;BME280;34335;51.566;6.994;2022-08-16T11:51:52;100230.53;;;32.72;35.21
48553;BME280;34335;51.566;6.994;2022-08-16T11:54:18;100232.09;;;33.01;34.04
48553;BME280;34335;51.566;6.994;2022-08-16T11:56:43;100244.50;;;33.20;33.50
48553;BME280;34335;51.566;6.994;2022-08-16T11:59:09;100239.09;;;33.98;35.83
48553;BME280;34335;51.566;6.994;2022-08-16T12:01:35;100231.69;;;34.33;32.62
48553;BME280;34335;51.566;6.994;2022-08-16T12:04:00;100240.31;;;33.26;33.95
48553;BME280;34335;51.566;6.994;2022-08-16T12:06:26;100234.47;;;33.82;34.69
48553;BME280;34335;51.566;6.994;2022-08-16T12:08:53;100234.00;;;33.95;31.39
48553;BME280;34335;51.566;6.994;2022-08-16T12:11:22;100240.09;;;34.05;34.42
48553;BME280;34335;51.566;6.994;2022-08-16T12:13:49;100240.63;;;34.58;32.96
48553;BME280;34335;51.566;6.994;2022-08-16T12:16:15;100233.03;;;34.37;32.44
48553;BME280;34335;51.566;6.994;2022-08-16T12:18:43;100242.66;;;34.56;30.76
48553;BME280;34335;51.566;6.994;2022-08-16T12:21:08;100237.56;;;34.94;33.85
48553;BME280;34335;51.566;6.994;2022-08-16T12:23:34;100248.00;;;34.15;30.92
48553;BME280;34335;51.566;6.994;2022-08-16T12:25:59;100243.00;;;33.61;34.05
48553;BME280;34335;51.566;6.994;2022-08-16T12:28:25;100239.97;;;33.64;31.00
48553;BME280;34335;51.566;6.994;2022-08-16T12:30:50;100250.28;;;33.77;31.42
48553;BME280;34335;51.566;6.994;2022-08-16T12:33:16;100242.41;;;33.92;33.29
48553;BME280;34335;51.566;6.994;2022-08-16T12:35:45;100239.09;;;33.98;30.91
48553;BME280;34335;51.566;6.994;2022-08-16T12:38:11;100235.25;;;32.97;31.93
48553;BME280;34335;51.566;6.994;2022-08-16T12:40:39;100249.91;;;32.76;35.84
48553;BME280;34335;51.566;6.994;2022-08-16T12:43:07;100241.69;;;33.73;33.64
48553;BME280;34335;51.566;6.994;2022-08-16T12:45:37;100239.09;;;34.31;31.20
48553;BME280;34335;51.566;6.994;2022-08-16T12:48:05;100244.72;;;33.01;34.20
48553;BME280;34335;51.566;6.994;2022-08-16T12:50:50;100234.38;;;34.25;30.78